Medi Baltimore — ICLW — position and weather

sailwx.info

Track history (hours):
 
Tides and Currents Weather Stations Pressure Air Temp Water Temp Dewpoint Dewpoint Depression Visibility Wind Speed Wind Dir Waves Ship Positions

Medi Baltimore

Last reported at 2016-Sep-23 17:21 UTC. Time now 2016-Sep-27 01:57 UTC.
Position N 32°00' W 123°55'.

Length 225 m; draft 13.4 m.

Type: Cargo ship. MMSI: 247255300.

Date/timePositionNaut miles runAvg speedWind from/ knotsBaromVisibWave heightAir tempDewpointWater temp
2016-Sep-23 17:21N 32°00' W 123°55'292 7.9
2016-Sep-22 04:33N 32°49' W 118°14'9 9.1
2016-Sep-22 03:33N 32°58' W 118°13'28 9.3
2016-Sep-22 00:33N 33°26' W 118°09'1010.1
2016-Sep-21 23:33N 33°35' W 118°13'9 7.4
2016-Sep-21 22:19N 33°44' W 118°12'1 0.0
2016-Sep-20 10:24N 33°45' W 118°12'0 0.0
2016-Sep-20 08:33N 33°45' W 118°12'0 0.0
2016-Sep-20 07:30N 33°45' W 118°12'0 0.0
2016-Sep-20 06:12N 33°45' W 118°12'0 0.0
2016-Sep-20 02:24N 33°45' W 118°12'0 0.0
2016-Sep-19 18:20N 33°45' W 118°12'0 0.0
2016-Sep-19 16:26N 33°45' W 118°12'0 0.0
2016-Sep-19 14:29N 33°45' W 118°12'0 0.0
2016-Sep-19 13:32N 33°45' W 118°12'0 0.0
2016-Sep-19 12:29N 33°45' W 118°12'0 0.0
2016-Sep-19 11:29N 33°45' W 118°12'0 0.0
2016-Sep-19 09:33N 33°45' W 118°12'0 0.0
2016-Sep-19 07:33N 33°45' W 118°12'0 0.0
2016-Sep-19 06:29N 33°45' W 118°12'0 0.0
2016-Sep-19 03:33N 33°45' W 118°12'0 0.0
2016-Sep-19 02:32N 33°45' W 118°12'0 0.0
2016-Sep-19 00:32N 33°45' W 118°12'2 0.4
2016-Sep-18 19:32N 33°44' W 118°10'0 0.0
2016-Sep-18 15:30N 33°44' W 118°10'0 0.1
2016-Sep-18 14:33N 33°44' W 118°10'0 0.0
2016-Sep-18 10:30N 33°44' W 118°10'0 0.1
2016-Sep-18 09:33N 33°44' W 118°10'0 0.0
2016-Sep-18 02:33N 33°44' W 118°10'0 0.1
2016-Sep-18 01:33N 33°44' W 118°10'0 0.0
2016-Sep-18 00:33N 33°44' W 118°10'0 0.0
2016-Sep-17 22:33N 33°44' W 118°10'0 0.0
2016-Sep-17 21:33N 33°44' W 118°10'0 0.1
2016-Sep-17 20:33N 33°44' W 118°10'0 0.1
2016-Sep-17 19:12N 33°44' W 118°10'0 0.0
2016-Sep-17 13:33N 33°44' W 118°10'0 0.0
2016-Sep-17 12:33N 33°44' W 118°10'7 3.6
2016-Sep-17 10:33N 33°37' W 118°13'8 8.0
2016-Sep-17 09:33N 33°37' W 118°23'1111.0
2016-Sep-17 08:33N 33°42' W 118°34'1111.1
2016-Sep-17 07:33N 33°48' W 118°46'2311.4
2016-Sep-17 05:33N 33°59' W 119°09'1111.1
2016-Sep-17 04:33N 34°04' W 119°22'4811.9
2016-Sep-17 00:33N 34°16' W 120°17'8111.5
2016-Sep-16 17:33N 34°15' W 121°55'2412.0
2016-Sep-16 15:33N 34°22' W 122°22'3612.2
2016-Sep-16 12:34N 34°32' W 123°05'3611.7
2016-Sep-16 09:28N 34°44' W 123°46'2010.3
2016-Sep-16 07:33N 34°50' W 124°09'4912.2
2016-Sep-16 03:30N 35°05' W 125°07'6112.4
2016-Sep-15 22:33N 35°30' W 126°15'1111.0
2016-Sep-15 21:33N 35°37' W 126°26'1010.2
2016-Sep-15 20:33N 35°44' W 126°35'2311.4
2016-Sep-15 18:33N 35°56' W 126°58'16811.8
2016-Sep-15 04:24N 37°24' W 129°56'  
Track history (hours):
 
Tides and Currents Weather Stations Pressure Air Temp Water Temp Dewpoint Dewpoint Depression Visibility Wind Speed Wind Dir Waves Ship Positions

Medi Baltimore

Last reported at 2016-Sep-23 17:21 UTC. Time now 2016-Sep-27 01:57 UTC.
Position N 32°00' W 123°55'.

Length 225 m; draft 13.4 m.

Type: Cargo ship. MMSI: 247255300.

Date/timePositionNaut miles runAvg speedWind from/ knotsBaromVisibWave heightAir tempDewpointWater temp
2016-Sep-23 17:21N 32°00' W 123°55'292 7.9
2016-Sep-22 04:33N 32°49' W 118°14'9 9.1
2016-Sep-22 03:33N 32°58' W 118°13'28 9.3
2016-Sep-22 00:33N 33°26' W 118°09'1010.1
2016-Sep-21 23:33N 33°35' W 118°13'9 7.4
2016-Sep-21 22:19N 33°44' W 118°12'1 0.0
2016-Sep-20 10:24N 33°45' W 118°12'0 0.0
2016-Sep-20 08:33N 33°45' W 118°12'0 0.0
2016-Sep-20 07:30N 33°45' W 118°12'0 0.0
2016-Sep-20 06:12N 33°45' W 118°12'0 0.0
2016-Sep-20 02:24N 33°45' W 118°12'0 0.0
2016-Sep-19 18:20N 33°45' W 118°12'0 0.0
2016-Sep-19 16:26N 33°45' W 118°12'0 0.0
2016-Sep-19 14:29N 33°45' W 118°12'0 0.0
2016-Sep-19 13:32N 33°45' W 118°12'0 0.0
2016-Sep-19 12:29N 33°45' W 118°12'0 0.0
2016-Sep-19 11:29N 33°45' W 118°12'0 0.0
2016-Sep-19 09:33N 33°45' W 118°12'0 0.0
2016-Sep-19 07:33N 33°45' W 118°12'0 0.0
2016-Sep-19 06:29N 33°45' W 118°12'0 0.0
2016-Sep-19 03:33N 33°45' W 118°12'0 0.0
2016-Sep-19 02:32N 33°45' W 118°12'0 0.0
2016-Sep-19 00:32N 33°45' W 118°12'2 0.4
2016-Sep-18 19:32N 33°44' W 118°10'0 0.0
2016-Sep-18 15:30N 33°44' W 118°10'0 0.1
2016-Sep-18 14:33N 33°44' W 118°10'0 0.0
2016-Sep-18 10:30N 33°44' W 118°10'0 0.1
2016-Sep-18 09:33N 33°44' W 118°10'0 0.0
2016-Sep-18 02:33N 33°44' W 118°10'0 0.1
2016-Sep-18 01:33N 33°44' W 118°10'0 0.0
2016-Sep-18 00:33N 33°44' W 118°10'0 0.0
2016-Sep-17 22:33N 33°44' W 118°10'0 0.0
2016-Sep-17 21:33N 33°44' W 118°10'0 0.1
2016-Sep-17 20:33N 33°44' W 118°10'0 0.1
2016-Sep-17 19:12N 33°44' W 118°10'0 0.0
2016-Sep-17 13:33N 33°44' W 118°10'0 0.0
2016-Sep-17 12:33N 33°44' W 118°10'7 3.6
2016-Sep-17 10:33N 33°37' W 118°13'8 8.0
2016-Sep-17 09:33N 33°37' W 118°23'1111.0
2016-Sep-17 08:33N 33°42' W 118°34'1111.1
2016-Sep-17 07:33N 33°48' W 118°46'2311.4
2016-Sep-17 05:33N 33°59' W 119°09'1111.1
2016-Sep-17 04:33N 34°04' W 119°22'4811.9
2016-Sep-17 00:33N 34°16' W 120°17'8111.5
2016-Sep-16 17:33N 34°15' W 121°55'2412.0
2016-Sep-16 15:33N 34°22' W 122°22'3612.2
2016-Sep-16 12:34N 34°32' W 123°05'3611.7
2016-Sep-16 09:28N 34°44' W 123°46'2010.3
2016-Sep-16 07:33N 34°50' W 124°09'4912.2
2016-Sep-16 03:30N 35°05' W 125°07'6112.4
2016-Sep-15 22:33N 35°30' W 126°15'1111.0
2016-Sep-15 21:33N 35°37' W 126°26'1010.2
2016-Sep-15 20:33N 35°44' W 126°35'2311.4
2016-Sep-15 18:33N 35°56' W 126°58'16811.8
2016-Sep-15 04:24N 37°24' W 129°56'  

Dump ship's entire track history